Aviation Digital Data Service (ADDS)

Output produced by METARs form (0807 UTC 02 July 2015)
found at http://www.aviationweather.gov/adds/metars/
 
KESN 020817Z AUTO 00000KT 2SM BR SCT050 BKN055 BKN120 21/21 A2992 RMK AO2 T02110211